sensor_id;sensor_type;location;lat;lon;timestamp;P1;durP1;ratioP1;P2;durP2;ratioP2
22515;SDS011;11424;48.860;9.624;2023-09-30T00:00:22;1.4;;;2.7;;
22515;SDS011;11424;48.860;9.624;2023-09-30T00:05:22;4.6;;;6.8;;
22515;SDS011;11424;48.860;9.624;2023-09-30T00:10:22;5.1;;;7.6;;
22515;SDS011;11424;48.860;9.624;2023-09-30T00:15:22;4.3;;;7;;
22515;SDS011;11424;48.860;9.624;2023-09-30T00:20:22;3.7;;;5.4;;
22515;SDS011;11424;48.860;9.624;2023-09-30T00:25:22;1.4;;;1.7;;
22515;SDS011;11424;48.860;9.624;2023-09-30T00:30:22;1.5;;;1.9;;
22515;SDS011;11424;48.860;9.624;2023-09-30T00:35:22;1.1;;;2.2;;
22515;SDS011;11424;48.860;9.624;2023-09-30T00:40:22;1.1;;;1.6;;
22515;SDS011;11424;48.860;9.624;2023-09-30T00:45:22;3.8;;;5;;
22515;SDS011;11424;48.860;9.624;2023-09-30T00:50:22;4.1;;;4.5;;
22515;SDS011;11424;48.860;9.624;2023-09-30T00:55:22;3.2;;;3.9;;
22515;SDS011;11424;48.860;9.624;2023-09-30T01:00:22;3.8;;;4.7;;
22515;SDS011;11424;48.860;9.624;2023-09-30T01:05:22;4.7;;;6.6;;
22515;SDS011;11424;48.860;9.624;2023-09-30T01:10:22;1.1;;;1.6;;
22515;SDS011;11424;48.860;9.624;2023-09-30T01:15:22;1;;;1.1;;
22515;SDS011;11424;48.860;9.624;2023-09-30T01:20:22;1.2;;;1.3;;
22515;SDS011;11424;48.860;9.624;2023-09-30T01:25:22;3.4;;;4;;
22515;SDS011;11424;48.860;9.624;2023-09-30T01:30:22;6;;;9.7;;
22515;SDS011;11424;48.860;9.624;2023-09-30T01:35:22;1.2;;;1.6;;
22515;SDS011;11424;48.860;9.624;2023-09-30T01:40:22;1.1;;;1.4;;
22515;SDS011;11424;48.860;9.624;2023-09-30T01:45:22;1.4;;;1.5;;
22515;SDS011;11424;48.860;9.624;2023-09-30T01:50:22;1.1;;;1.1;;
22515;SDS011;11424;48.860;9.624;2023-09-30T01:55:22;1.3;;;1.4;;
22515;SDS011;11424;48.860;9.624;2023-09-30T02:00:22;1.5;;;1.6;;
22515;SDS011;11424;48.860;9.624;2023-09-30T02:05:22;1.3;;;1.4;;
22515;SDS011;11424;48.860;9.624;2023-09-30T02:10:22;1.3;;;2.1;;
22515;SDS011;11424;48.860;9.624;2023-09-30T02:15:22;1.3;;;1.4;;
22515;SDS011;11424;48.860;9.624;2023-09-30T02:20:22;1.6;;;1.9;;
22515;SDS011;11424;48.860;9.624;2023-09-30T02:25:22;1.5;;;1.7;;
22515;SDS011;11424;48.860;9.624;2023-09-30T02:30:22;1.6;;;1.7;;
22515;SDS011;11424;48.860;9.624;2023-09-30T02:35:22;2.1;;;2.4;;
22515;SDS011;11424;48.860;9.624;2023-09-30T02:40:22;1.7;;;1.9;;
22515;SDS011;11424;48.860;9.624;2023-09-30T02:45:22;1.8;;;2.2;;
22515;SDS011;11424;48.860;9.624;2023-09-30T02:50:22;2;;;2.9;;
22515;SDS011;11424;48.860;9.624;2023-09-30T02:55:22;2.2;;;2.7;;
22515;SDS011;11424;48.860;9.624;2023-09-30T03:00:22;2.2;;;3.5;;
22515;SDS011;11424;48.860;9.624;2023-09-30T03:05:23;1.6;;;2.1;;
22515;SDS011;11424;48.860;9.624;2023-09-30T03:10:22;1.6;;;2.1;;
22515;SDS011;11424;48.860;9.624;2023-09-30T03:15:22;1.7;;;1.9;;
22515;SDS011;11424;48.860;9.624;2023-09-30T03:20:22;1.6;;;1.9;;
22515;SDS011;11424;48.860;9.624;2023-09-30T03:25:22;1.8;;;2;;
22515;SDS011;11424;48.860;9.624;2023-09-30T03:30:22;1.5;;;1.7;;
22515;SDS011;11424;48.860;9.624;2023-09-30T03:35:22;1.6;;;2.1;;
22515;SDS011;11424;48.860;9.624;2023-09-30T03:40:22;1.6;;;1.7;;
22515;SDS011;11424;48.860;9.624;2023-09-30T03:45:22;1.7;;;2.3;;
22515;SDS011;11424;48.860;9.624;2023-09-30T03:50:22;1.6;;;1.8;;
22515;SDS011;11424;48.860;9.624;2023-09-30T03:55:22;1.6;;;2;;
22515;SDS011;11424;48.860;9.624;2023-09-30T04:00:23;1.5;;;1.6;;
22515;SDS011;11424;48.860;9.624;2023-09-30T04:05:22;1.7;;;2;;
22515;SDS011;11424;48.860;9.624;2023-09-30T04:10:22;1.6;;;1.7;;
22515;SDS011;11424;48.860;9.624;2023-09-30T04:15:22;1.8;;;1.9;;
22515;SDS011;11424;48.860;9.624;2023-09-30T04:20:22;1.9;;;2.1;;
22515;SDS011;11424;48.860;9.624;2023-09-30T04:25:23;1.9;;;2.5;;
22515;SDS011;11424;48.860;9.624;2023-09-30T04:30:22;1.8;;;2.5;;
22515;SDS011;11424;48.860;9.624;2023-09-30T04:35:22;1.9;;;2.1;;
22515;SDS011;11424;48.860;9.624;2023-09-30T04:40:22;2.1;;;2.8;;
22515;SDS011;11424;48.860;9.624;2023-09-30T04:45:22;2.2;;;2.9;;
22515;SDS011;11424;48.860;9.624;2023-09-30T04:50:23;2.5;;;2.9;;
22515;SDS011;11424;48.860;9.624;2023-09-30T04:55:23;2.3;;;3.7;;
22515;SDS011;11424;48.860;9.624;2023-09-30T05:00:22;2.4;;;3.3;;
22515;SDS011;11424;48.860;9.624;2023-09-30T05:05:23;3.5;;;5.4;;
22515;SDS011;11424;48.860;9.624;2023-09-30T05:10:23;3.2;;;5.7;;
22515;SDS011;11424;48.860;9.624;2023-09-30T05:15:22;2.6;;;3.8;;
22515;SDS011;11424;48.860;9.624;2023-09-30T05:20:22;2.3;;;3.6;;
22515;SDS011;11424;48.860;9.624;2023-09-30T05:25:22;2.1;;;2.7;;
22515;SDS011;11424;48.860;9.624;2023-09-30T05:30:23;1.8;;;2.1;;
22515;SDS011;11424;48.860;9.624;2023-09-30T05:35:23;1.7;;;2.3;;
22515;SDS011;11424;48.860;9.624;2023-09-30T05:40:23;1.9;;;2.6;;
22515;SDS011;11424;48.860;9.624;2023-09-30T05:45:23;1.9;;;2.1;;
22515;SDS011;11424;48.860;9.624;2023-09-30T05:50:23;1.7;;;1.9;;
22515;SDS011;11424;48.860;9.624;2023-09-30T05:55:23;1.8;;;2.5;;
22515;SDS011;11424;48.860;9.624;2023-09-30T06:00:23;1.9;;;2.9;;
22515;SDS011;11424;48.860;9.624;2023-09-30T06:05:23;2.1;;;2.7;;
22515;SDS011;11424;48.860;9.624;2023-09-30T06:10:23;1.9;;;2.1;;
22515;SDS011;11424;48.860;9.624;2023-09-30T06:15:23;2;;;3;;
22515;SDS011;11424;48.860;9.624;2023-09-30T06:20:23;2.6;;;3.1;;
22515;SDS011;11424;48.860;9.624;2023-09-30T06:25:23;2.7;;;3.2;;
22515;SDS011;11424;48.860;9.624;2023-09-30T06:30:23;1.9;;;2.6;;
22515;SDS011;11424;48.860;9.624;2023-09-30T06:35:23;2.2;;;3.1;;
22515;SDS011;11424;48.860;9.624;2023-09-30T06:40:23;2.1;;;2.3;;
22515;SDS011;11424;48.860;9.624;2023-09-30T06:45:23;2.4;;;3.2;;
22515;SDS011;11424;48.860;9.624;2023-09-30T06:50:23;2.4;;;3.4;;
22515;SDS011;11424;48.860;9.624;2023-09-30T06:55:23;2.4;;;3.1;;
22515;SDS011;11424;48.860;9.624;2023-09-30T07:00:23;2.2;;;3;;
22515;SDS011;11424;48.860;9.624;2023-09-30T07:05:23;2.5;;;2.8;;
22515;SDS011;11424;48.860;9.624;2023-09-30T07:10:23;2.4;;;3;;
22515;SDS011;11424;48.860;9.624;2023-09-30T07:15:23;1.9;;;2.4;;
22515;SDS011;11424;48.860;9.624;2023-09-30T07:20:23;2.6;;;3;;
22515;SDS011;11424;48.860;9.624;2023-09-30T07:25:23;2.5;;;2.8;;
22515;SDS011;11424;48.860;9.624;2023-09-30T07:30:23;3.1;;;3.4;;
22515;SDS011;11424;48.860;9.624;2023-09-30T07:35:23;2.8;;;3.5;;
22515;SDS011;11424;48.860;9.624;2023-09-30T07:40:23;2.3;;;3;;
22515;SDS011;11424;48.860;9.624;2023-09-30T07:45:23;2.1;;;2.7;;
22515;SDS011;11424;48.860;9.624;2023-09-30T07:50:23;2;;;2.7;;
22515;SDS011;11424;48.860;9.624;2023-09-30T07:55:23;2.7;;;3.8;;
22515;SDS011;11424;48.860;9.624;2023-09-30T08:00:23;2;;;2.6;;
22515;SDS011;11424;48.860;9.624;2023-09-30T08:05:23;2.1;;;2.3;;
22515;SDS011;11424;48.860;9.624;2023-09-30T08:10:23;3.8;;;4.2;;
22515;SDS011;11424;48.860;9.624;2023-09-30T08:15:23;2.6;;;2.9;;
22515;SDS011;11424;48.860;9.624;2023-09-30T08:20:23;2.8;;;3.1;;
22515;SDS011;11424;48.860;9.624;2023-09-30T08:25:23;2.7;;;3;;
22515;SDS011;11424;48.860;9.624;2023-09-30T08:30:23;3.1;;;4;;
22515;SDS011;11424;48.860;9.624;2023-09-30T08:35:23;2.8;;;3.7;;
22515;SDS011;11424;48.860;9.624;2023-09-30T08:40:23;2.8;;;3.6;;
22515;SDS011;11424;48.860;9.624;2023-09-30T08:45:23;2.7;;;3.1;;
22515;SDS011;11424;48.860;9.624;2023-09-30T08:50:23;2.3;;;3.3;;
22515;SDS011;11424;48.860;9.624;2023-09-30T08:55:23;2.3;;;3;;
22515;SDS011;11424;48.860;9.624;2023-09-30T09:00:23;2.4;;;2.7;;
22515;SDS011;11424;48.860;9.624;2023-09-30T09:05:23;2.2;;;2.5;;
22515;SDS011;11424;48.860;9.624;2023-09-30T09:10:23;2.1;;;2.6;;
22515;SDS011;11424;48.860;9.624;2023-09-30T09:15:23;1.9;;;2.3;;
22515;SDS011;11424;48.860;9.624;2023-09-30T09:20:23;3.2;;;3.9;;
22515;SDS011;11424;48.860;9.624;2023-09-30T09:25:23;2.8;;;4.8;;
22515;SDS011;11424;48.860;9.624;2023-09-30T09:30:23;2.2;;;2.4;;
22515;SDS011;11424;48.860;9.624;2023-09-30T09:35:23;2;;;3.1;;
22515;SDS011;11424;48.860;9.624;2023-09-30T09:40:23;2;;;2.2;;
22515;SDS011;11424;48.860;9.624;2023-09-30T09:45:23;2.2;;;3;;
22515;SDS011;11424;48.860;9.624;2023-09-30T09:50:23;2.3;;;3.2;;
22515;SDS011;11424;48.860;9.624;2023-09-30T09:55:23;2.2;;;3.7;;
22515;SDS011;11424;48.860;9.624;2023-09-30T10:00:24;2.2;;;3.1;;
22515;SDS011;11424;48.860;9.624;2023-09-30T10:05:23;1.9;;;2.8;;
22515;SDS011;11424;48.860;9.624;2023-09-30T10:10:23;2;;;2.8;;
22515;SDS011;11424;48.860;9.624;2023-09-30T10:15:38;2.9;;;4;;
22515;SDS011;11424;48.860;9.624;2023-09-30T10:20:26;3.3;;;5.7;;
22515;SDS011;11424;48.860;9.624;2023-09-30T10:25:33;2.9;;;4.9;;
22515;SDS011;11424;48.860;9.624;2023-09-30T10:30:23;2.4;;;3.6;;
22515;SDS011;11424;48.860;9.624;2023-09-30T10:35:41;2.6;;;4.1;;
22515;SDS011;11424;48.860;9.624;2023-09-30T10:40:25;2.7;;;3.9;;
22515;SDS011;11424;48.860;9.624;2023-09-30T10:45:54;2.3;;;3.3;;
22515;SDS011;11424;48.860;9.624;2023-09-30T10:50:48;2.9;;;4.9;;
22515;SDS011;11424;48.860;9.624;2023-09-30T10:55:23;2.7;;;4;;
22515;SDS011;11424;48.860;9.624;2023-09-30T11:00:23;2.9;;;5.1;;
22515;SDS011;11424;48.860;9.624;2023-09-30T11:05:23;3;;;4.1;;
22515;SDS011;11424;48.860;9.624;2023-09-30T11:10:23;3.1;;;4.7;;
22515;SDS011;11424;48.860;9.624;2023-09-30T11:15:23;2.1;;;3.5;;
22515;SDS011;11424;48.860;9.624;2023-09-30T11:20:23;2.2;;;3;;
22515;SDS011;11424;48.860;9.624;2023-09-30T11:25:23;2.4;;;3.9;;
22515;SDS011;11424;48.860;9.624;2023-09-30T11:30:23;2.9;;;5.2;;
22515;SDS011;11424;48.860;9.624;2023-09-30T11:35:23;2.9;;;5.3;;
22515;SDS011;11424;48.860;9.624;2023-09-30T11:40:23;2.7;;;4.9;;
22515;SDS011;11424;48.860;9.624;2023-09-30T11:45:23;2.2;;;3.3;;
22515;SDS011;11424;48.860;9.624;2023-09-30T11:50:23;2.8;;;4.3;;
22515;SDS011;11424;48.860;9.624;2023-09-30T11:55:23;3.4;;;6;;
22515;SDS011;11424;48.860;9.624;2023-09-30T12:00:23;3.1;;;5.2;;
22515;SDS011;11424;48.860;9.624;2023-09-30T12:05:23;3;;;5.6;;
22515;SDS011;11424;48.860;9.624;2023-09-30T12:10:23;3.5;;;6.6;;
22515;SDS011;11424;48.860;9.624;2023-09-30T12:15:23;3.1;;;5.5;;
22515;SDS011;11424;48.860;9.624;2023-09-30T12:20:23;3.3;;;5.7;;
22515;SDS011;11424;48.860;9.624;2023-09-30T12:25:23;3.3;;;6;;
22515;SDS011;11424;48.860;9.624;2023-09-30T12:30:23;2.9;;;5.3;;
22515;SDS011;11424;48.860;9.624;2023-09-30T12:35:23;2.7;;;4.7;;
22515;SDS011;11424;48.860;9.624;2023-09-30T12:40:23;2.7;;;4.6;;
22515;SDS011;11424;48.860;9.624;2023-09-30T12:45:23;2.4;;;3.5;;
22515;SDS011;11424;48.860;9.624;2023-09-30T12:50:23;2.7;;;5.4;;
22515;SDS011;11424;48.860;9.624;2023-09-30T12:55:23;3.4;;;6;;
22515;SDS011;11424;48.860;9.624;2023-09-30T13:00:23;2.7;;;4.5;;
22515;SDS011;11424;48.860;9.624;2023-09-30T13:05:23;3.1;;;5.7;;
22515;SDS011;11424;48.860;9.624;2023-09-30T13:10:23;2.6;;;4.8;;
22515;SDS011;11424;48.860;9.624;2023-09-30T13:15:23;2.9;;;6.2;;
22515;SDS011;11424;48.860;9.624;2023-09-30T13:20:23;3.4;;;6.2;;
22515;SDS011;11424;48.860;9.624;2023-09-30T13:25:23;2.9;;;4.8;;
22515;SDS011;11424;48.860;9.624;2023-09-30T13:30:23;4.1;;;6.9;;
22515;SDS011;11424;48.860;9.624;2023-09-30T13:35:23;2.8;;;5;;
22515;SDS011;11424;48.860;9.624;2023-09-30T13:40:23;3.5;;;6.1;;
22515;SDS011;11424;48.860;9.624;2023-09-30T13:45:23;3.4;;;5.9;;
22515;SDS011;11424;48.860;9.624;2023-09-30T13:50:23;2.8;;;4.5;;
22515;SDS011;11424;48.860;9.624;2023-09-30T13:55:23;3.3;;;5;;
22515;SDS011;11424;48.860;9.624;2023-09-30T14:00:23;3;;;5.8;;
22515;SDS011;11424;48.860;9.624;2023-09-30T14:05:23;3.1;;;5.4;;
22515;SDS011;11424;48.860;9.624;2023-09-30T14:10:23;3.3;;;6.7;;
22515;SDS011;11424;48.860;9.624;2023-09-30T14:15:23;2.8;;;5.2;;
22515;SDS011;11424;48.860;9.624;2023-09-30T14:20:23;2.7;;;5.7;;
22515;SDS011;11424;48.860;9.624;2023-09-30T14:25:23;2.5;;;4.6;;
22515;SDS011;11424;48.860;9.624;2023-09-30T14:30:23;2.6;;;4.7;;
22515;SDS011;11424;48.860;9.624;2023-09-30T14:35:23;2.5;;;4.4;;
22515;SDS011;11424;48.860;9.624;2023-09-30T14:40:23;2.9;;;5.3;;
22515;SDS011;11424;48.860;9.624;2023-09-30T14:45:23;3;;;5;;
22515;SDS011;11424;48.860;9.624;2023-09-30T14:50:23;3.1;;;6.1;;
22515;SDS011;11424;48.860;9.624;2023-09-30T14:55:23;3.2;;;5.8;;
22515;SDS011;11424;48.860;9.624;2023-09-30T15:00:23;2.3;;;4.1;;
22515;SDS011;11424;48.860;9.624;2023-09-30T15:05:23;2.5;;;3.7;;
22515;SDS011;11424;48.860;9.624;2023-09-30T15:10:23;3.1;;;4.7;;
22515;SDS011;11424;48.860;9.624;2023-09-30T15:15:23;2.5;;;4.6;;
22515;SDS011;11424;48.860;9.624;2023-09-30T15:20:23;2.4;;;4.1;;
22515;SDS011;11424;48.860;9.624;2023-09-30T15:25:23;2.4;;;3.7;;
22515;SDS011;11424;48.860;9.624;2023-09-30T15:30:23;2.4;;;3.8;;
22515;SDS011;11424;48.860;9.624;2023-09-30T15:35:23;2;;;3.3;;
22515;SDS011;11424;48.860;9.624;2023-09-30T15:40:23;2.7;;;4.2;;
22515;SDS011;11424;48.860;9.624;2023-09-30T15:45:23;4.3;;;6.8;;
22515;SDS011;11424;48.860;9.624;2023-09-30T15:50:23;2.9;;;4.8;;
22515;SDS011;11424;48.860;9.624;2023-09-30T15:55:23;2.5;;;4;;
22515;SDS011;11424;48.860;9.624;2023-09-30T16:00:23;2.5;;;4.3;;
22515;SDS011;11424;48.860;9.624;2023-09-30T16:05:23;2;;;3.2;;
22515;SDS011;11424;48.860;9.624;2023-09-30T16:10:23;2.2;;;3.4;;
22515;SDS011;11424;48.860;9.624;2023-09-30T16:15:23;2.6;;;3.8;;
22515;SDS011;11424;48.860;9.624;2023-09-30T16:20:23;2.4;;;3.7;;
22515;SDS011;11424;48.860;9.624;2023-09-30T16:25:23;2.9;;;6;;
22515;SDS011;11424;48.860;9.624;2023-09-30T16:30:23;2.4;;;3.6;;
22515;SDS011;11424;48.860;9.624;2023-09-30T16:35:23;2.3;;;3.5;;
22515;SDS011;11424;48.860;9.624;2023-09-30T16:40:23;2.3;;;3.5;;
22515;SDS011;11424;48.860;9.624;2023-09-30T16:45:23;2.2;;;3.8;;
22515;SDS011;11424;48.860;9.624;2023-09-30T16:50:23;2.6;;;3.5;;
22515;SDS011;11424;48.860;9.624;2023-09-30T16:55:24;2.4;;;2.9;;
22515;SDS011;11424;48.860;9.624;2023-09-30T17:00:23;2.4;;;3.3;;
22515;SDS011;11424;48.860;9.624;2023-09-30T17:05:23;2.4;;;3.9;;
22515;SDS011;11424;48.860;9.624;2023-09-30T17:10:24;2.9;;;4.3;;
22515;SDS011;11424;48.860;9.624;2023-09-30T17:15:23;2.3;;;4.1;;
22515;SDS011;11424;48.860;9.624;2023-09-30T17:20:23;2.2;;;3.2;;
22515;SDS011;11424;48.860;9.624;2023-09-30T17:25:23;2.3;;;4.7;;
22515;SDS011;11424;48.860;9.624;2023-09-30T17:30:23;5.5;;;8.6;;
22515;SDS011;11424;48.860;9.624;2023-09-30T17:35:23;5.5;;;7.2;;
22515;SDS011;11424;48.860;9.624;2023-09-30T17:40:23;4.9;;;8;;
22515;SDS011;11424;48.860;9.624;2023-09-30T17:45:23;4;;;5.3;;
22515;SDS011;11424;48.860;9.624;2023-09-30T17:50:23;4.9;;;7.8;;
22515;SDS011;11424;48.860;9.624;2023-09-30T17:55:23;5.1;;;9.2;;
22515;SDS011;11424;48.860;9.624;2023-09-30T18:00:23;4.9;;;8.1;;
22515;SDS011;11424;48.860;9.624;2023-09-30T18:05:23;2.6;;;4.7;;
22515;SDS011;11424;48.860;9.624;2023-09-30T18:10:23;5.4;;;8.3;;
22515;SDS011;11424;48.860;9.624;2023-09-30T18:15:23;5.6;;;8.9;;
22515;SDS011;11424;48.860;9.624;2023-09-30T18:20:23;5.6;;;9.9;;
22515;SDS011;11424;48.860;9.624;2023-09-30T18:25:23;5.7;;;8.2;;
22515;SDS011;11424;48.860;9.624;2023-09-30T18:30:23;5.5;;;8.7;;
22515;SDS011;11424;48.860;9.624;2023-09-30T18:35:23;6.9;;;11.7;;
22515;SDS011;11424;48.860;9.624;2023-09-30T18:40:23;5.7;;;9.4;;
22515;SDS011;11424;48.860;9.624;2023-09-30T18:45:23;2.7;;;3.9;;
22515;SDS011;11424;48.860;9.624;2023-09-30T18:50:23;5.7;;;8.8;;
22515;SDS011;11424;48.860;9.624;2023-09-30T18:55:23;6.1;;;10.7;;
22515;SDS011;11424;48.860;9.624;2023-09-30T19:00:23;6.5;;;12.3;;
22515;SDS011;11424;48.860;9.624;2023-09-30T19:05:24;6.6;;;11.1;;
22515;SDS011;11424;48.860;9.624;2023-09-30T19:10:23;7.7;;;12.3;;
22515;SDS011;11424;48.860;9.624;2023-09-30T19:15:23;5.8;;;9.3;;
22515;SDS011;11424;48.860;9.624;2023-09-30T19:20:23;5.6;;;9;;
22515;SDS011;11424;48.860;9.624;2023-09-30T19:25:23;6.7;;;10.5;;
22515;SDS011;11424;48.860;9.624;2023-09-30T19:30:24;3.7;;;5.7;;
22515;SDS011;11424;48.860;9.624;2023-09-30T19:35:23;3.8;;;5.6;;
22515;SDS011;11424;48.860;9.624;2023-09-30T19:40:23;4.1;;;6.8;;
22515;SDS011;11424;48.860;9.624;2023-09-30T19:45:23;4.3;;;5.9;;
22515;SDS011;11424;48.860;9.624;2023-09-30T19:50:23;4.4;;;6.7;;
22515;SDS011;11424;48.860;9.624;2023-09-30T19:55:23;4.2;;;6.9;;
22515;SDS011;11424;48.860;9.624;2023-09-30T20:00:23;3.9;;;6.7;;
22515;SDS011;11424;48.860;9.624;2023-09-30T20:05:23;3.7;;;4.7;;
22515;SDS011;11424;48.860;9.624;2023-09-30T20:10:23;3.9;;;6.4;;
22515;SDS011;11424;48.860;9.624;2023-09-30T20:15:23;4;;;6.2;;
22515;SDS011;11424;48.860;9.624;2023-09-30T20:20:24;4.2;;;6.7;;
22515;SDS011;11424;48.860;9.624;2023-09-30T20:25:24;4.1;;;6.5;;
22515;SDS011;11424;48.860;9.624;2023-09-30T20:30:24;3.8;;;6;;
22515;SDS011;11424;48.860;9.624;2023-09-30T20:35:24;3.6;;;6.5;;
22515;SDS011;11424;48.860;9.624;2023-09-30T20:40:24;3.1;;;4.4;;
22515;SDS011;11424;48.860;9.624;2023-09-30T20:45:24;3.3;;;5.1;;
22515;SDS011;11424;48.860;9.624;2023-09-30T20:50:24;3.3;;;5.4;;
22515;SDS011;11424;48.860;9.624;2023-09-30T20:55:24;3.5;;;6;;
22515;SDS011;11424;48.860;9.624;2023-09-30T21:00:24;3.7;;;5.7;;
22515;SDS011;11424;48.860;9.624;2023-09-30T21:05:24;3.6;;;5.8;;
22515;SDS011;11424;48.860;9.624;2023-09-30T21:10:24;3.2;;;4.8;;
22515;SDS011;11424;48.860;9.624;2023-09-30T21:15:24;3.2;;;5.4;;
22515;SDS011;11424;48.860;9.624;2023-09-30T21:20:24;3.2;;;6.3;;
22515;SDS011;11424;48.860;9.624;2023-09-30T21:25:24;2.7;;;5;;
22515;SDS011;11424;48.860;9.624;2023-09-30T21:30:24;2.8;;;5.5;;
22515;SDS011;11424;48.860;9.624;2023-09-30T21:35:24;3.1;;;5.2;;
22515;SDS011;11424;48.860;9.624;2023-09-30T21:40:24;3.3;;;6;;
22515;SDS011;11424;48.860;9.624;2023-09-30T21:45:24;3.1;;;6.4;;
22515;SDS011;11424;48.860;9.624;2023-09-30T21:50:24;7.7;;;11.8;;
22515;SDS011;11424;48.860;9.624;2023-09-30T21:55:24;7.8;;;12.4;;
22515;SDS011;11424;48.860;9.624;2023-09-30T22:00:24;8.1;;;13;;
22515;SDS011;11424;48.860;9.624;2023-09-30T22:05:24;6.9;;;11.4;;
22515;SDS011;11424;48.860;9.624;2023-09-30T22:10:24;6.3;;;10.1;;
22515;SDS011;11424;48.860;9.624;2023-09-30T22:15:24;6.9;;;11.2;;
22515;SDS011;11424;48.860;9.624;2023-09-30T22:20:24;8;;;13.4;;
22515;SDS011;11424;48.860;9.624;2023-09-30T22:25:24;3.6;;;6.9;;
22515;SDS011;11424;48.860;9.624;2023-09-30T22:30:24;5.8;;;9;;
22515;SDS011;11424;48.860;9.624;2023-09-30T22:35:24;6.2;;;10.2;;
22515;SDS011;11424;48.860;9.624;2023-09-30T22:40:24;6.4;;;10.8;;
22515;SDS011;11424;48.860;9.624;2023-09-30T22:45:24;6.9;;;11.3;;
22515;SDS011;11424;48.860;9.624;2023-09-30T22:50:24;7.2;;;11.5;;
22515;SDS011;11424;48.860;9.624;2023-09-30T22:55:24;5.9;;;9.7;;
22515;SDS011;11424;48.860;9.624;2023-09-30T23:00:24;6;;;10;;
22515;SDS011;11424;48.860;9.624;2023-09-30T23:05:24;6.5;;;11.3;;
22515;SDS011;11424;48.860;9.624;2023-09-30T23:10:24;6.4;;;10.4;;
22515;SDS011;11424;48.860;9.624;2023-09-30T23:15:24;6.5;;;11.6;;
22515;SDS011;11424;48.860;9.624;2023-09-30T23:20:24;5.9;;;9.8;;
22515;SDS011;11424;48.860;9.624;2023-09-30T23:25:24;6.5;;;10.1;;
22515;SDS011;11424;48.860;9.624;2023-09-30T23:30:24;5.9;;;9.8;;
22515;SDS011;11424;48.860;9.624;2023-09-30T23:35:24;6.4;;;11.6;;
22515;SDS011;11424;48.860;9.624;2023-09-30T23:40:24;6.9;;;11.8;;
22515;SDS011;11424;48.860;9.624;2023-09-30T23:45:24;5.9;;;9.6;;
22515;SDS011;11424;48.860;9.624;2023-09-30T23:50:24;7;;;11.5;;
22515;SDS011;11424;48.860;9.624;2023-09-30T23:55:24;3.3;;;6.5;;
